.
WxDataArchive / Data Records for 2010-06-21
2010-06-20 June 2010 2010-06-22

Data Records for Monday, 21 June 2010

Time	Temp	Chill	HIndex	Humid	Dewpt	 Wind 	HiWind	WindDir	Rain 	Barom 
-----	----	-----	------	-----	-----	------	------	-------	-----	----- 
00:00	70.9	70.9	70.9	83	65.5	0	0	---	0.00	30.024 
00:05	70.8	70.8	70.8	83	65.4	0	0	---	0.00	30.024 
00:10	70.6	70.6	70.6	84	65.5	0	0	---	0.00	30.024 
00:15	70.4	70.4	70.4	84	65.3	0	0	---	0.00	30.021 
00:20	70.3	70.3	70.3	85	65.6	0	0	---	0.00	30.021 
00:25	70.3	70.3	70.3	85	65.6	0	0	---	0.00	30.021 
00:30	70.3	70.3	70.3	86	65.9	0	0	---	0.00	30.021 
00:35	70.1	70.1	70.1	86	65.7	0	0	---	0.00	30.021 
00:40	70.1	70.1	70.1	86	65.7	0	0	---	0.00	30.021 
00:45	70.1	70.1	70.1	87	66.0	0	0	---	0.00	30.022 
00:50	69.9	69.9	69.9	87	65.8	0	0	---	0.00	30.022 
00:55	69.9	69.9	69.9	87	65.8	0	0	---	0.00	30.022 
01:00	69.9	69.9	69.9	87	65.8	0	0	---	0.00	30.026 
01:05	69.9	69.9	69.9	88	66.2	0	0	---	0.00	30.026 
01:10	69.9	69.9	69.9	88	66.2	0	0	---	0.00	30.026 
01:15	69.9	69.9	69.9	88	66.2	0	0	---	0.00	30.023 
01:20	69.8	69.8	69.8	88	66.1	0	0	---	0.00	30.023 
01:25	69.8	69.8	69.8	88	66.1	0	0	---	0.00	30.023 
01:30	69.8	69.8	69.8	88	66.1	0	0	---	0.00	30.024 
01:35	69.8	69.8	69.8	88	66.1	0	0	---	0.00	30.024 
01:40	69.8	69.8	69.8	88	66.1	0	0	---	0.00	30.024 
01:45	69.6	69.6	69.6	88	65.9	0	0	---	0.00	30.023 
01:50	69.6	69.6	69.6	88	65.9	0	0	---	0.00	30.023 
01:55	69.4	69.4	69.4	88	65.7	0	0	---	0.00	30.023 
02:00	69.4	69.4	69.4	89	66.0	0	0	---	0.00	30.023 
02:05	69.3	69.3	69.3	89	65.9	0	0	---	0.00	30.023 
02:10	69.1	69.1	69.1	89	65.7	0	0	---	0.00	30.023 
02:15	69.1	69.1	69.1	90	66.0	0	0	---	0.00	30.023 
02:20	69.1	69.1	69.1	90	66.0	0	0	---	0.00	30.023 
02:25	68.9	68.9	68.9	90	65.8	0	0	---	0.00	30.023 
02:30	68.8	68.8	68.8	91	66.1	0	0	---	0.00	30.025 
02:35	68.6	68.6	68.6	91	65.9	0	0	---	0.00	30.025 
02:40	68.4	68.4	68.4	91	65.7	0	0	---	0.00	30.025 
02:45	68.4	68.4	68.4	91	65.7	0	0	---	0.00	30.025 
02:50	68.3	68.3	68.3	91	65.6	0	0	---	0.00	30.025 
02:55	68.1	68.1	68.1	92	65.7	0	0	---	0.00	30.025 
03:00	67.9	67.9	67.9	92	65.5	0	0	---	0.00	30.038 
03:05	67.8	67.8	67.8	92	65.4	0	0	---	0.00	30.038 
03:10	67.6	67.6	67.6	92	65.2	0	0	---	0.00	30.038 
03:15	67.4	67.4	67.4	92	65.0	0	0	---	0.00	30.044 
03:20	67.3	67.3	67.3	92	64.9	0	0	---	0.00	30.044 
03:25	67.1	67.1	67.1	92	64.7	0	0	---	0.00	30.044 
03:30	67.1	67.1	67.1	92	64.7	0	0	---	0.00	30.049 
03:35	66.9	66.9	66.9	92	64.5	0	0	---	0.00	30.049 
03:40	66.8	66.8	66.8	92	64.4	0	1	22	0.00	30.049 
03:45	66.8	66.8	66.8	92	64.4	0	0	---	0.00	30.041 
03:50	66.6	66.6	66.6	92	64.2	0	0	---	0.00	30.041 
03:55	66.4	66.4	66.4	92	64.0	0	0	---	0.00	30.041 
04:00	66.4	66.4	66.4	91	63.7	0	0	---	0.00	30.050 
04:05	66.4	66.4	66.4	91	63.7	0	0	---	0.00	30.050 
04:10	66.4	66.4	66.4	91	63.7	0	0	---	0.00	30.050 
04:15	66.3	66.3	66.3	91	63.6	0	0	---	0.00	30.057 
04:20	66.3	66.3	66.3	91	63.6	0	0	---	0.00	30.057 
04:25	66.3	66.3	66.3	91	63.6	0	0	---	0.00	30.057 
04:30	66.1	66.1	66.1	91	63.4	0	0	---	0.00	30.056 
04:35	66.1	66.1	66.1	91	63.4	0	0	---	0.00	30.056 
04:40	66.0	66.0	66.0	91	63.3	0	0	---	0.00	30.056 
04:45	66.0	66.0	66.0	91	63.3	0	0	---	0.00	30.056 
04:50	65.8	65.8	65.8	91	63.1	0	0	---	0.00	30.056 
04:55	65.8	65.8	65.8	91	63.1	0	0	---	0.00	30.056 
05:00	65.6	65.6	65.6	91	62.9	0	0	---	0.00	30.057 
05:05	65.6	65.6	65.6	91	62.9	0	0	---	0.00	30.057 
05:10	65.6	65.6	65.6	92	63.2	0	0	---	0.00	30.057 
05:15	65.6	65.6	65.6	92	63.2	0	0	---	0.00	30.054 
05:20	65.6	65.6	65.6	91	62.9	0	0	---	0.00	30.054 
05:25	65.6	65.6	65.6	91	62.9	0	0	---	0.00	30.054 
05:30	65.8	65.8	65.8	91	63.1	0	0	---	0.00	30.046 
05:35	65.8	65.8	65.8	91	63.1	0	2	22	0.00	30.046 
05:40	66.0	66.0	66.0	90	63.0	0	1	22	0.00	30.046 
05:45	66.0	66.0	66.0	89	62.7	0	2	22	0.00	30.047 
05:50	66.1	66.1	66.1	89	62.8	0	1	22	0.00	30.047 
05:55	66.1	66.1	66.1	88	62.4	1	3	22	0.00	30.047 
06:00	66.3	66.3	66.3	88	62.6	0	1	22	0.00	30.044 
06:05	66.3	66.3	66.3	88	62.6	0	2	22	0.00	30.044 
06:10	66.3	66.3	66.3	88	62.6	0	2	22	0.00	30.044 
06:15	66.3	66.3	66.3	88	62.6	0	2	22	0.00	30.044 
06:20	66.1	66.1	66.1	88	62.4	0	2	22	0.00	30.044 
06:25	66.1	66.1	66.1	88	62.4	0	2	22	0.00	30.044 
06:30	66.1	66.1	66.1	88	62.4	0	2	22	0.00	30.046 
06:35	66.1	66.1	66.1	88	62.4	0	2	22	0.00	30.046 
06:40	66.1	66.1	66.1	88	62.4	0	1	22	0.00	30.046 
06:45	66.1	66.1	66.1	88	62.4	0	1	0	0.00	30.052 
06:50	66.1	66.1	66.1	88	62.4	0	3	22	0.00	30.052 
06:55	66.3	66.3	66.3	88	62.6	1	3	22	0.00	30.052 
07:00	66.4	66.4	66.4	88	62.7	1	3	112	0.00	30.048 
07:05	66.6	66.6	66.6	87	62.6	1	4	90	0.00	30.048 
07:10	66.8	66.8	66.8	87	62.8	1	3	90	0.00	30.048 
07:15	67.1	67.1	67.1	86	62.8	1	5	90	0.00	30.048 
07:20	67.3	67.3	67.3	86	63.0	1	3	90	0.00	30.048 
07:25	67.8	67.8	67.8	85	63.1	1	5	90	0.00	30.048 
07:30	68.4	68.4	68.4	84	63.4	1	3	68	0.00	30.057 
07:35	68.9	68.9	68.9	82	63.2	1	4	68	0.00	30.057 
07:40	69.4	69.4	69.4	81	63.3	1	4	90	0.00	30.057 
07:45	69.9	69.9	69.9	81	63.8	1	3	90	0.00	30.065 
07:50	70.4	70.4	70.4	80	63.9	1	3	90	0.00	30.065 
07:55	70.9	70.9	70.9	79	64.1	0	3	90	0.00	30.065 
08:00	71.6	71.6	71.6	78	64.4	1	3	90	0.00	30.069 
08:05	72.1	72.1	72.1	77	64.5	1	2	90	0.00	30.069 
08:10	72.7	72.7	72.7	75	64.3	1	3	90	0.00	30.069 
08:15	73.2	73.2	73.2	74	64.4	1	4	90	0.00	30.071 
08:20	73.5	73.5	73.5	73	64.3	1	4	90	0.00	30.071 
08:25	73.7	73.7	73.7	73	64.5	1	4	90	0.00	30.071 
08:30	73.7	73.7	73.7	73	64.5	1	3	135	0.00	30.065 
08:35	73.7	73.7	73.7	73	64.5	1	3	90	0.00	30.065 
08:40	73.7	73.7	73.7	73	64.5	1	3	90	0.00	30.065 
08:45	73.7	73.7	73.7	73	64.5	1	3	90	0.00	30.070 
08:50	73.9	73.9	73.9	73	64.7	1	3	90	0.00	30.070 
08:55	74.4	74.4	74.4	73	65.2	1	3	0	0.00	30.070 
09:00	74.7	74.7	74.7	73	65.5	0	1	0	0.00	30.071 
09:05	75.3	75.3	76.9	71	65.2	1	4	22	0.00	30.071 
09:10	75.6	75.6	77.2	70	65.1	1	3	22	0.00	30.071 
09:15	76.0	76.0	77.6	71	65.9	1	3	22	0.00	30.063 
09:20	76.1	76.1	77.8	69	65.2	2	3	22	0.00	30.063 
09:25	76.1	76.1	77.8	69	65.2	1	4	68	0.00	30.063 
09:30	76.3	76.3	78.0	69	65.4	1	4	68	0.00	30.070 
09:35	77.0	77.0	78.8	68	65.6	1	3	112	0.00	30.070 
09:40	77.9	77.9	79.8	67	66.0	1	2	112	0.00	30.070 
09:45	78.6	78.6	80.6	65	65.8	1	5	112	0.00	30.076 
09:50	79.4	79.4	81.5	64	66.1	1	4	112	0.00	30.076 
09:55	80.1	80.1	82.3	63	66.3	0	1	112	0.00	30.076 
10:00	80.5	80.5	82.5	61	65.8	1	4	90	0.00	30.076 
10:05	81.2	81.2	83.2	59	65.5	0	1	90	0.00	30.076 
10:10	81.8	81.8	83.6	57	65.0	1	3	90	0.00	30.076 
10:15	82.4	82.4	84.6	58	66.1	0	2	135	0.00	30.071 
10:20	82.4	82.4	84.6	58	66.1	2	6	90	0.00	30.071 
10:25	81.6	81.6	83.5	58	65.4	2	5	90	0.00	30.071 
10:30	81.4	81.4	83.1	57	64.7	1	3	112	0.00	30.072 
10:35	81.6	81.6	83.7	59	65.9	1	3	135	0.00	30.072 
10:40	81.2	81.2	83.2	59	65.5	1	3	90	0.00	30.072 
10:45	81.2	81.2	83.3	60	66.0	1	3	158	0.00	30.066 
10:50	80.9	80.9	82.9	60	65.7	1	4	68	0.00	30.066 
10:55	80.5	80.5	82.4	60	65.3	0	2	68	0.00	30.066 
11:00	80.3	80.3	82.2	60	65.1	1	3	68	0.00	30.067 
11:05	79.9	79.9	81.7	60	64.7	0	1	68	0.00	30.067 
11:10	79.8	79.8	81.8	62	65.6	0	0	---	0.00	30.067 
11:15	79.6	79.6	81.5	62	65.4	0	0	---	0.00	30.084 
11:20	79.4	79.4	81.4	63	65.7	0	0	---	0.00	30.084 
11:25	79.4	79.4	81.5	64	66.1	0	0	---	0.00	30.084 
11:30	79.4	79.4	81.5	64	66.1	0	0	---	0.00	30.086 
11:35	79.2	79.2	81.2	64	65.9	0	0	---	0.00	30.086 
11:40	79.0	79.0	81.0	65	66.2	0	0	---	0.00	30.086 
11:45	78.8	78.8	80.9	67	66.9	0	0	---	0.00	30.087 
11:50	78.5	78.5	80.6	68	67.0	0	0	---	0.00	30.087 
11:55	78.3	78.3	80.3	68	66.8	0	0	---	0.00	30.087 
12:00	77.9	77.9	79.8	68	66.5	1	4	270	0.00	30.117 
12:05	77.6	77.6	79.5	67	65.8	2	4	270	0.00	30.117 
12:10	76.5	76.5	78.1	74	67.6	3	6	270	0.04	30.117 
12:15	74.7	74.7	74.7	81	68.5	1	3	225	0.05	30.137 
12:20	73.2	73.2	73.2	84	68.1	2	5	270	0.06	30.137 
12:25	72.1	72.1	72.1	87	68.0	1	3	270	0.04	30.137 
12:30	71.8	71.8	71.8	88	68.0	0	3	270	0.03	30.134 
12:35	71.3	71.3	71.3	90	68.2	1	4	270	0.02	30.134 
12:40	70.9	70.9	70.9	91	68.1	1	5	270	0.03	30.134 
12:45	70.6	70.6	70.6	91	67.8	2	4	270	0.01	30.127 
12:50	70.4	70.4	70.4	92	68.0	1	3	270	0.00	30.127 
12:55	70.3	70.3	70.3	92	67.9	0	2	270	0.01	30.127 
13:00	70.3	70.3	70.3	92	67.9	0	1	270	0.00	30.101 
13:05	70.4	70.4	70.4	93	68.3	0	0	---	0.01	30.101 
13:10	70.4	70.4	70.4	93	68.3	0	0	---	0.01	30.101 
13:15	70.6	70.6	70.6	93	68.5	0	0	---	0.00	30.073 
13:20	70.8	70.8	70.8	94	69.0	0	3	270	0.01	30.073 
13:25	71.1	71.1	71.1	94	69.3	1	5	90	0.00	30.073 
13:30	71.1	71.1	71.1	94	69.3	3	7	90	0.00	30.030 
13:35	70.9	70.9	70.9	94	69.1	4	9	90	0.00	30.030 
13:40	71.1	71.1	71.1	94	69.3	3	6	112	0.00	30.030 
13:45	71.5	71.5	71.5	94	69.7	2	4	112	0.00	30.022 
13:50	71.8	71.8	71.8	94	70.0	1	4	90	0.00	30.022 
13:55	72.3	72.3	72.3	94	70.5	0	2	90	0.00	30.022 
14:00	72.5	72.5	72.5	93	70.4	0	3	90	0.00	30.046 
14:05	72.7	72.7	72.7	93	70.6	0	1	90	0.00	30.046 
14:10	72.8	72.8	72.8	93	70.7	1	3	90	0.00	30.046 
14:15	72.7	72.7	72.7	91	69.9	2	4	90	0.00	30.042 
14:20	73.5	73.5	73.5	91	70.7	2	4	90	0.00	30.042 
14:25	74.0	74.0	74.0	88	70.2	2	5	68	0.00	30.042 
14:30	74.6	74.6	74.6	87	70.5	2	5	68	0.00	30.036 
14:35	75.1	75.1	75.0	85	70.3	2	5	112	0.00	30.036 
14:40	75.4	75.4	75.7	84	70.2	1	5	90	0.00	30.036 
14:45	76.1	76.1	76.8	84	70.9	1	2	90	0.00	30.028 
14:50	76.7	76.7	78.0	81	70.4	1	3	90	0.00	30.028 
14:55	77.0	77.0	78.5	81	70.7	1	4	112	0.00	30.028 
15:00	77.6	77.6	79.6	78	70.2	1	4	112	0.00	30.033 
15:05	78.1	78.1	80.4	78	70.7	1	4	22	0.00	30.033 
15:10	78.5	78.5	81.0	76	70.3	1	3	90	0.00	30.033 
15:15	78.8	78.8	81.7	78	71.3	0	2	68	0.00	30.029 
15:20	79.2	79.2	82.3	77	71.3	1	3	90	0.00	30.029 
15:25	79.2	79.2	82.1	74	70.2	1	5	90	0.00	30.029 
15:30	79.8	79.8	83.3	76	71.5	1	9	90	0.00	30.025 
15:35	80.3	80.3	84.1	75	71.6	1	3	90	0.00	30.025 
15:40	80.7	80.7	84.7	74	71.6	1	3	90	0.00	30.025 
15:45	80.7	80.7	84.6	73	71.2	1	4	90	0.00	30.012 
15:50	80.7	80.7	84.4	72	70.8	1	8	90	0.00	30.012 
15:55	80.9	80.9	85.1	74	71.8	1	3	112	0.00	30.012 
16:00	81.2	81.2	85.3	72	71.3	1	3	180	0.00	30.012 
16:05	81.6	81.6	85.7	70	70.8	1	3	135	0.00	30.012 
16:10	81.8	81.8	85.9	69	70.6	1	3	90	0.00	30.012 
16:15	81.6	81.6	85.5	69	70.4	1	3	112	0.00	30.014 
16:20	81.4	81.4	85.9	73	71.9	0	2	112	0.00	30.014 
16:25	81.4	81.4	85.5	71	71.1	0	2	112	0.00	30.014 
16:30	81.4	81.4	85.3	70	70.7	1	3	292	0.00	30.026 
16:35	81.1	81.1	84.6	69	69.9	0	2	292	0.00	30.026 
16:40	80.9	80.9	84.6	71	70.6	0	2	292	0.00	30.026 
16:45	81.6	81.6	86.3	73	72.1	0	1	292	0.00	30.028 
16:50	82.4	82.4	86.7	68	70.8	0	3	292	0.00	30.028 
16:55	82.8	82.8	87.2	67	70.7	1	3	292	0.00	30.028 
17:00	82.8	82.8	87.2	67	70.7	1	3	292	0.00	30.027 
17:05	82.4	82.4	86.5	67	70.3	1	4	292	0.00	30.027 
17:10	82.0	82.0	86.0	68	70.4	0	2	315	0.00	30.027 
17:15	82.4	82.4	86.5	67	70.3	0	2	315	0.00	30.025 
17:20	83.0	83.0	87.6	67	70.9	0	1	315	0.00	30.025 
17:25	83.4	83.4	87.6	64	69.9	1	2	292	0.00	30.025 
17:30	83.4	83.4	87.6	64	69.9	0	2	292	0.00	30.025 
17:35	83.4	83.4	87.3	63	69.5	0	2	292	0.00	30.025 
17:40	83.4	83.4	87.3	63	69.5	1	4	292	0.00	30.025 
17:45	83.4	83.4	87.8	65	70.4	0	1	292	0.00	30.024 
17:50	83.6	83.6	87.6	63	69.6	0	2	292	0.00	30.024 
17:55	83.8	83.8	88.0	63	69.8	0	2	270	0.00	30.024 
18:00	83.4	83.4	87.6	64	69.9	0	2	270	0.00	30.021 
18:05	83.2	83.2	87.2	64	69.7	0	2	270	0.00	30.021 
18:10	83.0	83.0	86.4	62	68.6	0	2	270	0.00	30.021 
18:15	83.0	83.0	86.6	63	69.1	0	2	270	0.00	30.011 
18:20	83.0	83.0	86.6	63	69.1	0	3	270	0.00	30.011 
18:25	82.8	82.8	86.5	64	69.3	0	2	270	0.00	30.011 
18:30	82.8	82.8	86.3	63	68.9	0	2	270	0.00	30.009 
18:35	82.8	82.8	86.3	63	68.9	0	2	270	0.00	30.009 
18:40	82.8	82.8	86.7	65	69.8	0	2	270	0.00	30.009 
18:45	82.8	82.8	86.5	64	69.3	0	3	270	0.00	30.002 
18:50	82.6	82.6	86.4	65	69.6	0	2	270	0.00	30.002 
18:55	82.6	82.6	86.4	65	69.6	0	2	270	0.00	30.002 
19:00	82.4	82.4	86.5	67	70.3	0	1	270	0.00	29.994 
19:05	82.4	82.4	86.5	67	70.3	0	2	270	0.00	29.994 
19:10	82.2	82.2	85.7	65	69.2	0	2	270	0.00	29.994 
19:15	82.0	82.0	85.4	65	69.0	0	2	270	0.00	29.996 
19:20	82.0	82.0	85.6	66	69.5	0	1	270	0.00	29.996 
19:25	82.0	82.0	85.8	67	69.9	0	1	270	0.00	29.996 
19:30	81.8	81.8	85.5	67	69.7	0	1	270	0.00	29.989 
19:35	81.8	81.8	85.5	67	69.7	1	5	270	0.00	29.989 
19:40	81.6	81.6	85.3	68	70.0	1	7	90	0.00	29.989 
19:45	81.4	81.4	85.0	68	69.8	0	1	90	0.00	29.991 
19:50	81.2	81.2	84.6	68	69.6	0	3	90	0.00	29.991 
19:55	81.2	81.2	84.8	69	70.0	0	1	90	0.00	29.991 
20:00	81.1	81.1	84.6	69	69.9	0	1	90	0.00	29.990 
20:05	80.9	80.9	84.3	69	69.8	0	1	90	0.00	29.990 
20:10	80.7	80.7	84.0	69	69.6	0	1	90	0.00	29.990 
20:15	80.3	80.3	83.4	70	69.6	0	1	90	0.00	29.989 
20:20	80.1	80.1	83.2	71	69.8	0	0	---	0.00	29.989 
20:25	79.8	79.8	82.9	72	69.9	0	0	---	0.00	29.989 
20:30	79.6	79.6	82.6	73	70.2	0	0	---	0.00	29.989 
20:35	79.4	79.4	82.3	73	70.0	0	0	---	0.00	29.989 
20:40	79.2	79.2	82.1	74	70.2	0	0	---	0.00	29.989 
20:45	79.0	79.0	81.8	75	70.4	0	0	---	0.00	29.990 
20:50	78.8	78.8	81.5	75	70.2	0	0	---	0.00	29.990 
20:55	78.8	78.8	81.5	76	70.6	0	0	---	0.00	29.990 
21:00	78.6	78.6	81.2	77	70.8	0	0	---	0.00	29.994 
21:05	78.5	78.5	81.1	77	70.7	0	0	---	0.00	29.994 
21:10	78.3	78.3	80.7	77	70.5	0	0	---	0.00	29.994 
21:15	78.1	78.1	80.4	78	70.7	0	0	---	0.00	29.992 
21:20	77.9	77.9	80.1	79	70.8	0	0	---	0.00	29.992 
21:25	77.7	77.7	79.8	79	70.7	0	0	---	0.00	29.992 
21:30	77.6	77.6	79.6	79	70.6	0	0	---	0.00	29.997 
21:35	77.2	77.2	78.9	80	70.5	0	0	---	0.00	29.997 
21:40	77.2	77.2	78.9	81	70.9	0	0	---	0.00	29.997 
21:45	76.8	76.8	78.2	81	70.5	0	0	---	0.00	29.987 
21:50	76.8	76.8	78.2	82	70.9	0	0	---	0.00	29.987 
21:55	76.7	76.7	78.0	82	70.8	0	0	---	0.00	29.987 
22:00	76.5	76.5	77.6	83	70.9	0	0	---	0.00	29.988 
22:05	76.3	76.3	77.2	83	70.7	0	0	---	0.00	29.988 
22:10	76.3	76.3	77.2	84	71.1	0	0	---	0.00	29.988 
22:15	76.1	76.1	76.8	84	70.9	0	0	---	0.00	29.987 
22:20	76.0	76.0	76.7	84	70.8	0	0	---	0.00	29.987 
22:25	76.0	76.0	76.7	84	70.8	0	0	---	0.00	29.987 
22:30	76.0	76.0	76.7	84	70.8	0	0	---	0.00	29.986 
22:35	76.0	76.0	76.7	84	70.8	0	0	---	0.00	29.986 
22:40	76.0	76.0	76.7	84	70.8	0	0	---	0.00	29.986 
22:45	76.0	76.0	76.7	84	70.8	0	0	---	0.00	29.988 
22:50	76.0	76.0	76.7	84	70.8	0	0	---	0.00	29.988 
22:55	76.1	76.1	76.8	84	70.9	0	1	135	0.00	29.988 
23:00	76.1	76.1	76.9	83	70.5	0	2	135	0.00	29.974 
23:05	76.1	76.1	77.0	82	70.2	0	2	135	0.00	29.974 
23:10	76.1	76.1	77.0	82	70.2	0	0	---	0.00	29.974 
23:15	76.1	76.1	77.0	82	70.2	0	0	---	0.00	29.981 
23:20	76.0	76.0	76.8	82	70.1	0	0	---	0.00	29.981 
23:25	76.0	76.0	76.8	82	70.1	0	0	---	0.00	29.981 
23:30	75.8	75.8	76.5	82	69.9	0	0	---	0.00	29.989 
23:35	75.6	75.6	76.2	82	69.7	0	1	135	0.00	29.989 
23:40	75.6	75.6	76.2	82	69.7	0	0	---	0.00	29.989 
23:45	75.6	75.6	76.2	82	69.7	0	0	---	0.00	29.999 
23:50	75.4	75.4	75.9	82	69.5	0	1	135	0.00	29.999 
23:55	75.4	75.4	75.9	82	69.5	0	2	135	0.00	29.999 

CoCoRaHS
IN-AL-39
A2 Web Hosting
Creative Commons License
GoDaddy
search engine by freefind advanced

loaded 2018-11-20 15:24:16 • last modified 2010-11-18 10:43:29
Privacy PolicyDisclaimer
• wx.awcolley.com is powered by PmWiki v.2002016 •
• all content (unless otherwise noted) © 2018 A W Colley